sensor_id;sensor_type;location;lat;lon;timestamp;pressure;altitude;pressure_sealevel;temperature;humidity
78206;BME280;67480;48.920;12.880;2023-11-21T00:01:44;96504.56;;;5.27;77.00
78206;BME280;67480;48.920;12.880;2023-11-21T00:04:09;96501.34;;;5.25;77.29
78206;BME280;67480;48.920;12.880;2023-11-21T00:06:34;96502.38;;;5.24;77.44
78206;BME280;67480;48.920;12.880;2023-11-21T00:09:00;96496.56;;;5.22;77.30
78206;BME280;67480;48.920;12.880;2023-11-21T00:11:25;96495.53;;;5.23;77.50
78206;BME280;67480;48.920;12.880;2023-11-21T00:13:51;96491.94;;;5.24;77.46
78206;BME280;67480;48.920;12.880;2023-11-21T00:16:16;96490.47;;;5.28;77.25
78206;BME280;67480;48.920;12.880;2023-11-21T00:18:41;96489.69;;;5.28;77.33
78206;BME280;67480;48.920;12.880;2023-11-21T00:21:08;96500.91;;;5.28;77.17
78206;BME280;67480;48.920;12.880;2023-11-21T00:23:34;96495.69;;;5.28;77.17
78206;BME280;67480;48.920;12.880;2023-11-21T00:25:59;96487.28;;;5.26;77.07
78206;BME280;67480;48.920;12.880;2023-11-21T00:28:25;96480.03;;;5.28;77.30
78206;BME280;67480;48.920;12.880;2023-11-21T00:30:51;96480.47;;;5.25;77.06
78206;BME280;67480;48.920;12.880;2023-11-21T00:33:16;96470.03;;;5.25;77.33
78206;BME280;67480;48.920;12.880;2023-11-21T00:35:42;96481.25;;;5.26;77.68
78206;BME280;67480;48.920;12.880;2023-11-21T00:38:07;96471.84;;;5.25;77.49
78206;BME280;67480;48.920;12.880;2023-11-21T00:40:33;96464.22;;;5.23;77.22
78206;BME280;67480;48.920;12.880;2023-11-21T00:42:59;96459.59;;;5.25;77.46
78206;BME280;67480;48.920;12.880;2023-11-21T00:45:24;96459.59;;;5.25;77.31
78206;BME280;67480;48.920;12.880;2023-11-21T00:47:49;96464.81;;;5.25;76.80
78206;BME280;67480;48.920;12.880;2023-11-21T00:50:15;96463.22;;;5.24;77.17
78206;BME280;67480;48.920;12.880;2023-11-21T00:52:41;96461.16;;;5.26;76.63
78206;BME280;67480;48.920;12.880;2023-11-21T00:55:06;96459.59;;;5.25;77.30
78206;BME280;67480;48.920;12.880;2023-11-21T00:57:33;96466.38;;;5.26;76.81
78206;BME280;67480;48.920;12.880;2023-11-21T00:59:58;96462.78;;;5.27;76.75
78206;BME280;67480;48.920;12.880;2023-11-21T01:02:24;96462.78;;;5.27;77.16
78206;BME280;67480;48.920;12.880;2023-11-21T01:04:50;96461.41;;;5.25;76.89
78206;BME280;67480;48.920;12.880;2023-11-21T01:07:15;96468.44;;;5.24;76.87
78206;BME280;67480;48.920;12.880;2023-11-21T01:09:41;96473.06;;;5.22;76.94
78206;BME280;67480;48.920;12.880;2023-11-21T01:12:06;96477.25;;;5.23;77.08
78206;BME280;67480;48.920;12.880;2023-11-21T01:14:32;96470.44;;;5.22;77.13
78206;BME280;67480;48.920;12.880;2023-11-21T01:16:57;96473.06;;;5.22;77.36
78206;BME280;67480;48.920;12.880;2023-11-21T01:19:22;96475.69;;;5.22;77.24
78206;BME280;67480;48.920;12.880;2023-11-21T01:21:47;96466.66;;;5.18;77.09
78206;BME280;67480;48.920;12.880;2023-11-21T01:24:13;96466.88;;;5.17;77.09
78206;BME280;67480;48.920;12.880;2023-11-21T01:26:38;96455.50;;;5.11;77.54
78206;BME280;67480;48.920;12.880;2023-11-21T01:29:04;96448.03;;;5.14;77.45
78206;BME280;67480;48.920;12.880;2023-11-21T01:31:29;96472.91;;;5.17;77.26
78206;BME280;67480;48.920;12.880;2023-11-21T01:33:55;96461.66;;;5.17;77.29
78206;BME280;67480;48.920;12.880;2023-11-21T01:36:21;96462.47;;;5.17;77.13
78206;BME280;67480;48.920;12.880;2023-11-21T01:38:46;96453.06;;;5.16;77.39
78206;BME280;67480;48.920;12.880;2023-11-21T01:41:13;96459.25;;;5.15;77.05
78206;BME280;67480;48.920;12.880;2023-11-21T01:43:39;96452.03;;;5.17;77.20
78206;BME280;67480;48.920;12.880;2023-11-21T01:46:05;96457.84;;;5.19;77.10
78206;BME280;67480;48.920;12.880;2023-11-21T01:48:31;96458.41;;;5.21;77.24
78206;BME280;67480;48.920;12.880;2023-11-21T01:50:57;96464.03;;;5.18;76.97
78206;BME280;67480;48.920;12.880;2023-11-21T01:53:26;96448.63;;;5.17;76.73
78206;BME280;67480;48.920;12.880;2023-11-21T01:55:54;96460.44;;;5.19;77.31
78206;BME280;67480;48.920;12.880;2023-11-21T01:58:20;96458.25;;;5.16;76.91
78206;BME280;67480;48.920;12.880;2023-11-21T02:00:46;96458.84;;;5.18;77.04
78206;BME280;67480;48.920;12.880;2023-11-21T02:03:14;96456.66;;;5.15;77.51
78206;BME280;67480;48.920;12.880;2023-11-21T02:05:40;96460.88;;;5.16;77.17
78206;BME280;67480;48.920;12.880;2023-11-21T02:08:05;96455.66;;;5.16;77.35
78206;BME280;67480;48.920;12.880;2023-11-21T02:10:32;96460.06;;;5.16;77.37
78206;BME280;67480;48.920;12.880;2023-11-21T02:12:57;96457.31;;;5.10;77.72
78206;BME280;67480;48.920;12.880;2023-11-21T02:15:23;96457.69;;;5.14;77.62
78206;BME280;67480;48.920;12.880;2023-11-21T02:17:52;96456.88;;;5.13;77.41
78206;BME280;67480;48.920;12.880;2023-11-21T02:20:20;96456.09;;;5.13;77.38
78206;BME280;67480;48.920;12.880;2023-11-21T02:22:55;96458.69;;;5.13;77.29
78206;BME280;67480;48.920;12.880;2023-11-21T02:25:31;96449.41;;;5.17;77.34
78206;BME280;67480;48.920;12.880;2023-11-21T02:27:59;96449.41;;;5.17;77.02
78206;BME280;67480;48.920;12.880;2023-11-21T02:30:25;96458.25;;;5.16;77.24
78206;BME280;67480;48.920;12.880;2023-11-21T02:32:51;96456.09;;;5.13;77.11
78206;BME280;67480;48.920;12.880;2023-11-21T02:35:19;96447.88;;;5.09;77.05
78206;BME280;67480;48.920;12.880;2023-11-21T02:37:46;96446.47;;;5.07;77.35
78206;BME280;67480;48.920;12.880;2023-11-21T02:40:12;96451.28;;;5.10;77.50
78206;BME280;67480;48.920;12.880;2023-11-21T02:42:39;96461.16;;;5.08;77.40
78206;BME280;67480;48.920;12.880;2023-11-21T02:45:06;96457.16;;;5.05;77.37
78206;BME280;67480;48.920;12.880;2023-11-21T02:47:32;96457.34;;;5.04;77.31
78206;BME280;67480;48.920;12.880;2023-11-21T02:49:57;96455.78;;;5.03;77.51
78206;BME280;67480;48.920;12.880;2023-11-21T02:52:22;96461.00;;;5.03;77.55
78206;BME280;67480;48.920;12.880;2023-11-21T02:54:47;96467.00;;;5.03;77.36
78206;BME280;67480;48.920;12.880;2023-11-21T02:57:13;96462.56;;;5.04;77.22
78206;BME280;67480;48.920;12.880;2023-11-21T02:59:38;96456.38;;;5.05;77.56
78206;BME280;67480;48.920;12.880;2023-11-21T03:02:04;96450.56;;;5.03;76.88
78206;BME280;67480;48.920;12.880;2023-11-21T03:04:29;96453.94;;;5.03;77.01
78206;BME280;67480;48.920;12.880;2023-11-21T03:06:54;96450.56;;;5.03;77.19
78206;BME280;67480;48.920;12.880;2023-11-21T03:09:19;96450.97;;;5.00;77.57
78206;BME280;67480;48.920;12.880;2023-11-21T03:11:45;96465.03;;;4.99;77.26
78206;BME280;67480;48.920;12.880;2023-11-21T03:14:10;96455.84;;;4.96;77.17
78206;BME280;67480;48.920;12.880;2023-11-21T03:16:36;96451.41;;;4.97;76.93
78206;BME280;67480;48.920;12.880;2023-11-21T03:19:03;96457.19;;;4.99;77.28
78206;BME280;67480;48.920;12.880;2023-11-21T03:21:30;96450.63;;;4.96;77.55
78206;BME280;67480;48.920;12.880;2023-11-21T03:23:55;96452.63;;;4.94;77.06
78206;BME280;67480;48.920;12.880;2023-11-21T03:26:20;96452.84;;;4.93;77.25
78206;BME280;67480;48.920;12.880;2023-11-21T03:28:46;96452.63;;;4.94;77.36
78206;BME280;67480;48.920;12.880;2023-11-21T03:31:11;96442.63;;;4.91;77.10
78206;BME280;67480;48.920;12.880;2023-11-21T03:33:37;96449.00;;;4.95;77.31
78206;BME280;67480;48.920;12.880;2023-11-21T03:36:02;96447.19;;;4.96;76.78
78206;BME280;67480;48.920;12.880;2023-11-21T03:38:29;96437.19;;;4.93;77.24
78206;BME280;67480;48.920;12.880;2023-11-21T03:40:54;96442.41;;;4.93;76.86
78206;BME280;67480;48.920;12.880;2023-11-21T03:43:19;96437.19;;;4.93;77.13
78206;BME280;67480;48.920;12.880;2023-11-21T03:45:45;96448.63;;;4.91;77.00
78206;BME280;67480;48.920;12.880;2023-11-21T03:48:12;96449.84;;;4.89;76.78
78206;BME280;67480;48.920;12.880;2023-11-21T03:50:37;96443.41;;;4.91;76.95
78206;BME280;67480;48.920;12.880;2023-11-21T03:53:03;96443.63;;;4.90;76.90
78206;BME280;67480;48.920;12.880;2023-11-21T03:55:29;96441.84;;;4.90;76.74
78206;BME280;67480;48.920;12.880;2023-11-21T03:57:56;96439.63;;;4.87;76.94
78206;BME280;67480;48.920;12.880;2023-11-21T04:00:22;96434.84;;;4.84;77.25
78206;BME280;67480;48.920;12.880;2023-11-21T04:02:47;96433.84;;;4.85;77.17
78206;BME280;67480;48.920;12.880;2023-11-21T04:05:12;96436.47;;;4.85;76.78
78206;BME280;67480;48.920;12.880;2023-11-21T04:07:38;96425.84;;;4.80;77.04
78206;BME280;67480;48.920;12.880;2023-11-21T04:10:05;96431.06;;;4.80;77.23
78206;BME280;67480;48.920;12.880;2023-11-21T04:12:33;96427.88;;;4.78;77.39
78206;BME280;67480;48.920;12.880;2023-11-21T04:14:58;96432.28;;;4.78;77.03
78206;BME280;67480;48.920;12.880;2023-11-21T04:17:23;96430.47;;;4.78;77.15
78206;BME280;67480;48.920;12.880;2023-11-21T04:19:49;96424.66;;;4.76;77.46
78206;BME280;67480;48.920;12.880;2023-11-21T04:22:14;96421.94;;;4.71;76.87
78206;BME280;67480;48.920;12.880;2023-11-21T04:24:39;96437.56;;;4.71;77.34
78206;BME280;67480;48.920;12.880;2023-11-21T04:27:05;96427.13;;;4.71;77.25
78206;BME280;67480;48.920;12.880;2023-11-21T04:29:30;96424.38;;;4.66;77.09
78206;BME280;67480;48.920;12.880;2023-11-21T04:31:55;96424.53;;;4.71;77.52
78206;BME280;67480;48.920;12.880;2023-11-21T04:34:21;96430.31;;;4.73;77.24
78206;BME280;67480;48.920;12.880;2023-11-21T04:36:46;96427.56;;;4.68;76.73
78206;BME280;67480;48.920;12.880;2023-11-21T04:39:11;96426.75;;;4.67;77.12
78206;BME280;67480;48.920;12.880;2023-11-21T04:41:37;96428.91;;;4.77;77.19
78206;BME280;67480;48.920;12.880;2023-11-21T04:44:07;96428.31;;;4.75;76.73
78206;BME280;67480;48.920;12.880;2023-11-21T04:46:32;96430.91;;;4.75;76.87
78206;BME280;67480;48.920;12.880;2023-11-21T04:48:58;96429.09;;;4.76;76.86
78206;BME280;67480;48.920;12.880;2023-11-21T04:51:23;96421.50;;;4.74;76.63
78206;BME280;67480;48.920;12.880;2023-11-21T04:53:49;96429.31;;;4.74;76.80
78206;BME280;67480;48.920;12.880;2023-11-21T04:56:14;96426.72;;;4.74;76.77
78206;BME280;67480;48.920;12.880;2023-11-21T04:58:41;96426.72;;;4.74;76.93
78206;BME280;67480;48.920;12.880;2023-11-21T05:01:07;96427.34;;;4.69;76.73
78206;BME280;67480;48.920;12.880;2023-11-21T05:03:33;96429.16;;;4.69;77.24
78206;BME280;67480;48.920;12.880;2023-11-21T05:05:59;96438.56;;;4.70;77.12
78206;BME280;67480;48.920;12.880;2023-11-21T05:08:24;96445.97;;;4.73;76.89
78206;BME280;67480;48.920;12.880;2023-11-21T05:10:51;96441.59;;;4.67;77.31
78206;BME280;67480;48.920;12.880;2023-11-21T05:13:17;96447.84;;;4.66;77.01
78206;BME280;67480;48.920;12.880;2023-11-21T05:15:43;96443.63;;;4.65;77.02
78206;BME280;67480;48.920;12.880;2023-11-21T05:18:09;96452.47;;;4.64;77.42
78206;BME280;67480;48.920;12.880;2023-11-21T05:20:35;96441.00;;;4.65;77.69
78206;BME280;67480;48.920;12.880;2023-11-21T05:23:00;96451.06;;;4.61;77.67
78206;BME280;67480;48.920;12.880;2023-11-21T05:25:25;96442.47;;;4.61;77.42
78206;BME280;67480;48.920;12.880;2023-11-21T05:27:51;96448.28;;;4.63;77.78
78206;BME280;67480;48.920;12.880;2023-11-21T05:30:16;96454.47;;;4.62;77.15
